createdAt,value
2019-04-30T00:01:38.913Z,15.63
2019-04-30T00:04:15.766Z,15.57
2019-04-30T00:06:47.419Z,15.69
2019-04-30T00:09:20.372Z,15.59
2019-04-30T00:11:57.924Z,15.64
2019-04-30T00:14:27.414Z,15.58
2019-04-30T00:16:58.108Z,15.58
2019-04-30T00:19:29.552Z,15.57
2019-04-30T00:22:01.785Z,15.44
2019-04-30T00:24:33.248Z,15.47
2019-04-30T00:27:05.164Z,15.52
2019-04-30T00:29:36.732Z,15.38
2019-04-30T00:32:08.272Z,15.38
2019-04-30T00:34:39.595Z,15.40
2019-04-30T00:37:13.986Z,15.42
2019-04-30T00:39:50.716Z,15.46
2019-04-30T00:42:23.902Z,15.45
2019-04-30T00:44:51.038Z,15.55
2019-04-30T00:47:22.581Z,15.55
2019-04-30T00:49:58.923Z,15.55
2019-04-30T00:52:29.463Z,15.55
2019-04-30T00:55:00.353Z,15.46
2019-04-30T00:57:37.366Z,15.46
2019-04-30T01:00:07.741Z,15.50
2019-04-30T01:03:07.860Z,15.44
2019-04-30T01:05:39.680Z,15.48
2019-04-30T01:08:10.083Z,15.40
2019-04-30T01:10:41.173Z,15.39
2019-04-30T01:13:12.209Z,15.39
2019-04-30T01:15:44.023Z,15.40
2019-04-30T01:18:16.390Z,15.37
2019-04-30T01:20:48.769Z,15.39
2019-04-30T01:23:20.617Z,15.51
2019-04-30T01:25:51.815Z,15.51
2019-04-30T01:28:24.416Z,15.43
2019-04-30T01:30:58.686Z,15.43
2019-04-30T01:33:34.717Z,15.50
2019-04-30T01:36:04.058Z,15.49
2019-04-30T01:38:35.251Z,15.45
2019-04-30T01:41:06.310Z,15.45
2019-04-30T01:43:38.602Z,15.52
2019-04-30T01:46:13.807Z,15.44
2019-04-30T01:48:43.660Z,15.44
2019-04-30T01:51:18.364Z,15.44
2019-04-30T01:53:48.579Z,15.37
2019-04-30T01:56:38.807Z,15.34
2019-04-30T01:59:19.056Z,15.42
2019-04-30T02:01:50.904Z,15.25
2019-04-30T02:04:22.081Z,15.18
2019-04-30T02:06:53.251Z,15.19
2019-04-30T02:09:24.563Z,15.08
2019-04-30T02:11:53.652Z,14.88
2019-04-30T02:14:24.817Z,14.76
2019-04-30T02:16:56.190Z,14.84
2019-04-30T02:19:28.782Z,14.80
2019-04-30T02:22:00.699Z,14.89
2019-04-30T02:24:32.060Z,14.82
2019-04-30T02:27:03.397Z,14.67
2019-04-30T02:29:34.666Z,14.64
2019-04-30T02:32:06.095Z,14.61
2019-04-30T02:34:44.482Z,14.60
2019-04-30T02:37:21.114Z,14.60
2019-04-30T02:39:52.622Z,14.39
2019-04-30T02:42:24.293Z,14.36
2019-04-30T02:44:56.181Z,14.35
2019-04-30T02:47:30.244Z,14.13
2019-04-30T02:50:15.509Z,14.07
2019-04-30T02:52:40.288Z,13.94
2019-04-30T02:55:14.409Z,13.87
2019-04-30T02:57:45.492Z,14.07
2019-04-30T03:00:20.584Z,13.93
2019-04-30T03:02:51.657Z,13.93
2019-04-30T03:05:23.024Z,14.03
2019-04-30T03:07:54.426Z,13.96
2019-04-30T03:10:25.842Z,13.98
2019-04-30T03:12:59.756Z,14.02
2019-04-30T03:15:30.382Z,13.84
2019-04-30T03:18:11.616Z,13.60
2019-04-30T03:21:04.703Z,13.59
2019-04-30T03:23:36.140Z,13.67
2019-04-30T03:26:12.565Z,13.50
2019-04-30T03:28:40.614Z,13.57
2019-04-30T03:31:12.669Z,13.62
2019-04-30T03:33:43.952Z,13.56
2019-04-30T03:36:15.062Z,13.63
2019-04-30T03:38:46.449Z,13.71
2019-04-30T03:41:19.809Z,13.59
2019-04-30T03:43:50.559Z,13.48
2019-04-30T03:46:21.620Z,13.55
2019-04-30T03:48:52.898Z,13.60
2019-04-30T03:51:24.299Z,13.47
2019-04-30T03:53:55.681Z,13.37
2019-04-30T03:56:29.632Z,13.36
2019-04-30T03:59:00.356Z,13.37
2019-04-30T04:01:49.621Z,13.45
2019-04-30T04:04:30.987Z,13.49
2019-04-30T04:07:21.425Z,13.36
2019-04-30T04:09:59.876Z,13.35
2019-04-30T04:12:31.457Z,13.51
2019-04-30T04:15:03.948Z,13.42
2019-04-30T04:17:39.453Z,13.46
2019-04-30T04:20:10.568Z,13.50
2019-04-30T04:22:42.319Z,13.64
2019-04-30T04:25:13.915Z,13.78
2019-04-30T04:27:45.503Z,13.67
2019-04-30T04:30:16.995Z,13.87
2019-04-30T04:32:50.096Z,13.87
2019-04-30T04:35:21.936Z,13.79
2019-04-30T04:37:53.339Z,13.83
2019-04-30T04:40:24.821Z,13.90
2019-04-30T04:42:56.145Z,13.94
2019-04-30T04:45:27.287Z,13.93
2019-04-30T04:48:00.050Z,13.61
2019-04-30T04:50:32.530Z,13.63
2019-04-30T04:53:03.877Z,13.54
2019-04-30T04:55:35.112Z,13.67
2019-04-30T04:58:06.199Z,13.61
2019-04-30T05:00:39.186Z,13.68
2019-04-30T05:03:20.174Z,13.58
2019-04-30T05:05:51.632Z,13.60
2019-04-30T05:08:22.814Z,13.75
2019-04-30T05:10:53.990Z,13.96
2019-04-30T05:13:25.109Z,14.01
2019-04-30T05:15:56.077Z,14.16
2019-04-30T05:18:29.014Z,14.39
2019-04-30T05:21:00.502Z,14.45
2019-04-30T05:23:31.506Z,14.66
2019-04-30T05:26:02.895Z,14.74
2019-04-30T05:28:33.904Z,14.58
2019-04-30T05:31:05.149Z,14.68
2019-04-30T05:33:36.455Z,14.68
2019-04-30T05:36:09.352Z,14.84
2019-04-30T05:38:41.031Z,15.00
2019-04-30T05:41:12.486Z,15.90
2019-04-30T05:43:43.939Z,16.99
2019-04-30T05:46:14.952Z,16.99
2019-04-30T05:48:46.180Z,17.53
2019-04-30T05:51:19.349Z,17.34
2019-04-30T05:53:50.621Z,17.34
2019-04-30T05:56:21.942Z,17.13
2019-04-30T05:58:55.650Z,17.37
2019-04-30T06:01:26.925Z,17.30
2019-04-30T06:03:59.484Z,17.18
2019-04-30T06:06:30.619Z,16.89
2019-04-30T06:09:22.585Z,16.88
2019-04-30T06:12:04.397Z,16.99
2019-04-30T06:14:49.307Z,17.33
2019-04-30T06:17:20.423Z,17.25
2019-04-30T06:19:51.763Z,17.30
2019-04-30T06:22:23.615Z,17.35
2019-04-30T06:24:56.291Z,17.53
2019-04-30T06:27:29.133Z,17.97
2019-04-30T06:30:00.568Z,17.97
2019-04-30T06:32:33.355Z,17.98
2019-04-30T06:35:04.867Z,17.98
2019-04-30T06:37:36.447Z,18.07
2019-04-30T06:40:09.395Z,18.12
2019-04-30T06:42:41.432Z,18.09
2019-04-30T06:45:12.957Z,18.02
2019-04-30T06:47:44.841Z,17.99
2019-04-30T06:50:16.482Z,18.01
2019-04-30T06:52:56.607Z,18.15
2019-04-30T06:55:20.791Z,17.87
2019-04-30T06:57:52.152Z,17.94
2019-04-30T07:00:32.802Z,18.03
2019-04-30T07:03:00.198Z,18.00
2019-04-30T07:05:33.612Z,18.30
2019-04-30T07:08:22.085Z,18.11
2019-04-30T07:11:11.237Z,17.97
2019-04-30T07:13:46.078Z,18.11
2019-04-30T07:16:18.974Z,18.41
2019-04-30T07:18:50.244Z,18.79
2019-04-30T07:21:21.675Z,18.69
2019-04-30T07:23:53.148Z,19.19
2019-04-30T07:26:24.878Z,19.35
2019-04-30T07:28:55.891Z,19.48
2019-04-30T07:31:29.411Z,19.37
2019-04-30T07:34:00.453Z,19.35
2019-04-30T07:36:45.914Z,19.15
2019-04-30T07:39:06.451Z,18.97
2019-04-30T07:41:40.057Z,19.03
2019-04-30T07:44:16.670Z,19.13
2019-04-30T07:46:45.272Z,19.02
2019-04-30T07:49:16.651Z,18.92
2019-04-30T07:51:51.867Z,18.80
2019-04-30T07:54:21.871Z,18.82
2019-04-30T07:56:53.138Z,18.51
2019-04-30T07:59:24.580Z,18.33
2019-04-30T08:02:06.579Z,17.82
2019-04-30T08:04:50.916Z,17.82
2019-04-30T08:07:21.576Z,17.64
2019-04-30T08:09:52.911Z,17.49
2019-04-30T08:12:30.391Z,17.22
2019-04-30T08:14:59.326Z,17.02
2019-04-30T08:17:30.109Z,17.01
2019-04-30T08:20:01.388Z,17.17
2019-04-30T08:22:32.441Z,17.02
2019-04-30T08:25:03.667Z,16.97
2019-04-30T08:27:35.066Z,17.08
2019-04-30T08:30:20.717Z,17.24
2019-04-30T08:32:40.081Z,17.31
2019-04-30T08:35:11.509Z,17.47
2019-04-30T08:37:42.905Z,17.28
2019-04-30T08:40:14.196Z,17.28
2019-04-30T08:42:45.585Z,17.25
2019-04-30T08:45:19.485Z,17.31
2019-04-30T08:47:50.550Z,17.86
2019-04-30T08:50:23.727Z,18.60
2019-04-30T08:52:55.007Z,19.49
2019-04-30T08:55:26.365Z,19.84
2019-04-30T08:58:09.696Z,20.09
2019-04-30T09:00:30.838Z,19.75
2019-04-30T09:03:02.075Z,19.82
2019-04-30T09:05:50.577Z,19.58
2019-04-30T09:08:21.851Z,19.12
2019-04-30T09:10:53.123Z,18.91
2019-04-30T09:13:24.556Z,18.82
2019-04-30T09:15:56.094Z,19.35
2019-04-30T09:18:29.164Z,19.56
2019-04-30T09:21:06.028Z,19.19
2019-04-30T09:23:47.516Z,18.80
2019-04-30T09:26:08.708Z,18.91
2019-04-30T09:28:41.055Z,18.66
2019-04-30T09:31:12.528Z,18.68
2019-04-30T09:33:43.957Z,18.35
2019-04-30T09:36:15.324Z,18.41
2019-04-30T09:38:46.310Z,18.56
2019-04-30T09:41:19.209Z,18.56
2019-04-30T09:43:50.495Z,18.31
2019-04-30T09:46:26.840Z,18.35
2019-04-30T09:48:54.663Z,18.24
2019-04-30T09:51:26.192Z,17.36
2019-04-30T09:54:00.650Z,16.78
2019-04-30T09:56:30.474Z,16.66
2019-04-30T09:59:01.868Z,17.02
2019-04-30T10:01:33.396Z,17.11
2019-04-30T10:04:05.651Z,17.22
2019-04-30T10:06:40.135Z,17.05
2019-04-30T10:09:12.159Z,17.55
2019-04-30T10:11:55.922Z,17.62
2019-04-30T10:14:26.837Z,17.42
2019-04-30T10:17:22.920Z,17.28
2019-04-30T10:19:54.105Z,17.19
2019-04-30T10:22:25.568Z,17.19
2019-04-30T10:24:56.848Z,16.91
2019-04-30T10:27:29.370Z,16.75
2019-04-30T10:30:01.536Z,16.88
2019-04-30T10:32:33.003Z,16.72
2019-04-30T10:35:04.361Z,16.20
2019-04-30T10:37:35.804Z,15.25
2019-04-30T10:40:07.327Z,15.25
2019-04-30T10:42:39.288Z,14.81
2019-04-30T10:45:10.857Z,14.68
2019-04-30T10:47:42.550Z,15.12
2019-04-30T10:50:14.357Z,16.28
2019-04-30T10:52:45.756Z,16.28
2019-04-30T10:55:17.204Z,16.69
2019-04-30T10:57:49.546Z,16.92
2019-04-30T11:00:24.460Z,17.38
2019-04-30T11:02:55.767Z,18.13
2019-04-30T11:05:28.928Z,18.52
2019-04-30T11:08:00.248Z,18.39
2019-04-30T11:10:32.107Z,18.84
2019-04-30T11:13:03.719Z,18.64
2019-04-30T11:15:35.024Z,19.07
2019-04-30T11:18:06.956Z,19.66
2019-04-30T11:20:39.703Z,19.48
2019-04-30T11:23:14.540Z,19.52
2019-04-30T11:25:45.196Z,19.44
2019-04-30T11:28:16.987Z,19.64
2019-04-30T11:30:50.378Z,19.29
2019-04-30T11:33:22.008Z,19.49
2019-04-30T11:36:02.305Z,19.73
2019-04-30T11:38:26.384Z,19.35
2019-04-30T11:40:58.462Z,19.26
2019-04-30T11:43:29.933Z,19.64
2019-04-30T11:46:40.453Z,19.30
2019-04-30T11:49:11.858Z,18.88
2019-04-30T11:51:43.192Z,18.93
2019-04-30T11:54:14.614Z,18.98
2019-04-30T11:56:45.604Z,18.73
2019-04-30T11:59:16.693Z,18.30
2019-04-30T12:01:49.716Z,17.66
2019-04-30T12:04:20.860Z,17.80
2019-04-30T12:06:53.583Z,17.98
2019-04-30T12:09:55.715Z,18.02
2019-04-30T12:12:28.849Z,18.19
2019-04-30T12:15:02.661Z,18.31
2019-04-30T12:17:32.787Z,18.42
2019-04-30T12:20:04.327Z,18.36
2019-04-30T12:22:35.579Z,18.64
2019-04-30T12:25:07.261Z,18.55
2019-04-30T12:27:38.712Z,18.68
2019-04-30T12:30:10.423Z,18.83
2019-04-30T12:32:41.718Z,18.82
2019-04-30T12:35:13.726Z,18.89
2019-04-30T12:37:44.851Z,18.85
2019-04-30T12:40:26.606Z,18.63
2019-04-30T12:42:48.960Z,18.64
2019-04-30T12:45:20.459Z,18.70
2019-04-30T12:47:55.623Z,18.89
2019-04-30T12:50:33.853Z,19.15
2019-04-30T12:53:09.477Z,19.17
2019-04-30T12:56:00.250Z,18.87
2019-04-30T12:58:31.771Z,18.86
2019-04-30T13:01:03.322Z,18.65
2019-04-30T13:03:34.643Z,18.76
2019-04-30T13:06:06.717Z,18.79
2019-04-30T13:08:39.126Z,18.79
2019-04-30T13:11:13.057Z,18.81
2019-04-30T13:13:44.149Z,18.81
2019-04-30T13:16:16.110Z,18.84
2019-04-30T13:18:49.402Z,18.91
2019-04-30T13:21:20.513Z,18.88
2019-04-30T13:23:51.745Z,18.99
2019-04-30T13:26:22.836Z,19.15
2019-04-30T13:29:05.411Z,19.17
2019-04-30T13:31:36.681Z,19.14
2019-04-30T13:34:25.456Z,19.07
2019-04-30T13:36:56.489Z,18.92
2019-04-30T13:39:33.045Z,18.91
2019-04-30T13:42:15.804Z,18.91
2019-04-30T13:44:41.210Z,18.90
2019-04-30T13:47:13.329Z,19.12
2019-04-30T13:49:44.575Z,19.31
2019-04-30T13:52:15.945Z,19.33
2019-04-30T13:54:46.915Z,19.19
2019-04-30T13:57:17.820Z,19.33
2019-04-30T13:59:51.018Z,19.38
2019-04-30T14:02:21.831Z,19.30
2019-04-30T14:05:09.650Z,18.91
2019-04-30T14:08:09.540Z,18.83
2019-04-30T14:10:43.289Z,18.82
2019-04-30T14:13:14.727Z,18.93
2019-04-30T14:15:47.811Z,19.04
2019-04-30T14:18:28.406Z,19.11
2019-04-30T14:20:52.171Z,19.36
2019-04-30T14:23:23.391Z,19.52
2019-04-30T14:25:56.683Z,19.53
2019-04-30T14:28:29.158Z,19.54
2019-04-30T14:31:00.688Z,19.42
2019-04-30T14:33:31.609Z,19.23
2019-04-30T14:36:03.852Z,19.05
2019-04-30T14:38:36.280Z,19.07
2019-04-30T14:41:08.606Z,18.90
2019-04-30T14:43:45.245Z,18.56
2019-04-30T14:46:35.937Z,18.46
2019-04-30T14:49:26.529Z,18.43
2019-04-30T14:51:59.582Z,18.38
2019-04-30T14:54:53.092Z,18.25
2019-04-30T14:57:42.060Z,18.25
2019-04-30T15:00:35.100Z,18.12
2019-04-30T15:03:09.866Z,17.95
2019-04-30T15:05:48.350Z,17.93
2019-04-30T15:08:13.880Z,17.84
2019-04-30T15:10:45.696Z,17.99
2019-04-30T15:13:17.100Z,17.82
2019-04-30T15:15:49.134Z,17.89
2019-04-30T15:18:21.685Z,17.83
2019-04-30T15:20:52.895Z,17.72
2019-04-30T15:23:41.408Z,17.62
2019-04-30T15:26:22.246Z,17.56
2019-04-30T15:28:45.671Z,17.62
2019-04-30T15:31:18.357Z,17.61
2019-04-30T15:34:11.129Z,17.57
2019-04-30T15:36:42.488Z,17.25
2019-04-30T15:39:42.132Z,17.25
2019-04-30T15:42:14.117Z,17.27
2019-04-30T15:44:45.931Z,17.18
2019-04-30T15:47:18.956Z,17.19
2019-04-30T15:49:50.280Z,17.19
2019-04-30T15:52:21.637Z,17.18
2019-04-30T15:54:53.201Z,17.04
2019-04-30T15:57:25.669Z,17.03
2019-04-30T15:59:56.710Z,16.89
2019-04-30T16:02:56.338Z,16.72
2019-04-30T16:05:45.353Z,16.60
2019-04-30T16:08:28.939Z,16.47
2019-04-30T16:11:25.342Z,16.55
2019-04-30T16:14:13.455Z,16.29
2019-04-30T16:16:49.223Z,16.21
2019-04-30T16:19:20.702Z,16.05
2019-04-30T16:21:51.659Z,15.89
2019-04-30T16:24:24.112Z,15.75
2019-04-30T16:26:55.364Z,15.67
2019-04-30T16:29:26.409Z,15.67
2019-04-30T16:31:59.164Z,15.66
2019-04-30T16:34:30.556Z,15.59
2019-04-30T16:37:01.819Z,15.59
2019-04-30T16:39:32.915Z,15.52
2019-04-30T16:42:04.040Z,15.52
2019-04-30T16:44:35.056Z,15.50
2019-04-30T16:47:13.433Z,15.49
2019-04-30T16:49:38.856Z,15.54
2019-04-30T16:52:10.070Z,15.35
2019-04-30T16:54:41.170Z,15.35
2019-04-30T16:57:12.455Z,15.44
2019-04-30T16:59:43.687Z,15.44
2019-04-30T17:02:15.344Z,15.34
2019-04-30T17:04:54.631Z,15.22
2019-04-30T17:07:43.478Z,15.12
2019-04-30T17:10:36.319Z,15.13
2019-04-30T17:13:29.350Z,15.13
2019-04-30T17:16:10.958Z,15.14
2019-04-30T17:18:41.757Z,15.09
2019-04-30T17:21:14.334Z,15.06
2019-04-30T17:23:45.414Z,15.01
2019-04-30T17:26:16.460Z,15.01
2019-04-30T17:28:49.397Z,14.85
2019-04-30T17:31:20.359Z,14.75
2019-04-30T17:33:51.351Z,14.68
2019-04-30T17:36:22.354Z,14.68
2019-04-30T17:38:53.387Z,14.63
2019-04-30T17:41:24.532Z,14.67
2019-04-30T17:43:55.533Z,14.59
2019-04-30T17:46:28.475Z,14.47
2019-04-30T17:48:59.682Z,14.43
2019-04-30T17:51:31.161Z,14.44
2019-04-30T17:54:15.069Z,14.45
2019-04-30T17:56:46.773Z,14.45
2019-04-30T17:59:18.772Z,14.42
2019-04-30T18:01:59.623Z,14.44
2019-04-30T18:04:31.374Z,14.29
2019-04-30T18:07:02.542Z,14.21
2019-04-30T18:09:34.017Z,13.96
2019-04-30T18:12:05.118Z,13.94
2019-04-30T18:14:36.356Z,13.83
2019-04-30T18:17:09.298Z,13.68
2019-04-30T18:20:02.474Z,13.55
2019-04-30T18:22:48.924Z,13.10
2019-04-30T18:25:38.956Z,12.89
2019-04-30T18:28:10.324Z,12.70
2019-04-30T18:30:42.146Z,12.46
2019-04-30T18:33:13.453Z,12.19
2019-04-30T18:35:44.863Z,12.07
2019-04-30T18:38:17.778Z,11.96
2019-04-30T18:40:50.389Z,11.90
2019-04-30T18:43:21.821Z,11.76
2019-04-30T18:45:53.548Z,11.71
2019-04-30T18:48:26.097Z,11.65
2019-04-30T18:50:57.853Z,11.42
2019-04-30T18:53:30.903Z,11.37
2019-04-30T18:56:02.462Z,11.22
2019-04-30T18:58:39.917Z,11.08
2019-04-30T19:01:09.274Z,11.01
2019-04-30T19:03:40.873Z,11.00
2019-04-30T19:06:23.950Z,10.95
2019-04-30T19:09:00.368Z,10.95
2019-04-30T19:11:43.021Z,10.90
2019-04-30T19:14:32.094Z,10.93
2019-04-30T19:17:25.486Z,10.94
2019-04-30T19:20:18.780Z,10.75
2019-04-30T19:22:50.747Z,10.74
2019-04-30T19:25:23.823Z,10.66
2019-04-30T19:28:09.413Z,10.62
2019-04-30T19:30:32.513Z,10.60
2019-04-30T19:33:03.542Z,10.63
2019-04-30T19:35:35.204Z,10.58
2019-04-30T19:38:09.077Z,10.56
2019-04-30T19:40:40.566Z,10.62
2019-04-30T19:43:12.303Z,10.56
2019-04-30T19:45:44.102Z,10.55
2019-04-30T19:48:16.188Z,10.54
2019-04-30T19:50:48.894Z,10.50
2019-04-30T19:53:22.261Z,10.48
2019-04-30T19:55:53.905Z,10.45
2019-04-30T19:58:37.982Z,10.41
2019-04-30T20:00:59.551Z,10.51
2019-04-30T20:03:31.325Z,10.49
2019-04-30T20:06:03.694Z,10.47
2019-04-30T20:08:38.782Z,10.52
2019-04-30T20:11:10.561Z,10.50
2019-04-30T20:13:42.530Z,10.58
2019-04-30T20:16:14.085Z,10.46
2019-04-30T20:18:45.743Z,10.49
2019-04-30T20:21:28.045Z,10.51
2019-04-30T20:23:53.740Z,10.33
2019-04-30T20:26:26.004Z,10.41
2019-04-30T20:28:59.104Z,10.34
2019-04-30T20:31:30.896Z,10.19
2019-04-30T20:34:02.221Z,10.31
2019-04-30T20:36:33.668Z,10.24
2019-04-30T20:39:25.228Z,10.22
2019-04-30T20:41:57.185Z,10.14
2019-04-30T20:44:29.184Z,10.06
2019-04-30T20:47:00.870Z,10.01
2019-04-30T20:49:32.508Z,9.96
2019-04-30T20:52:04.190Z,9.98
2019-04-30T20:54:35.636Z,10.17
2019-04-30T20:57:08.763Z,10.18
2019-04-30T20:59:40.552Z,10.17
2019-04-30T21:02:11.936Z,10.32
2019-04-30T21:04:43.546Z,10.29
2019-04-30T21:07:16.036Z,10.28
2019-04-30T21:09:47.316Z,10.30
2019-04-30T21:12:18.995Z,10.35
2019-04-30T21:14:50.176Z,10.42
2019-04-30T21:17:21.802Z,10.39
2019-04-30T21:19:53.347Z,10.47
2019-04-30T21:22:25.022Z,10.51
2019-04-30T21:24:56.392Z,10.28
2019-04-30T21:27:28.288Z,10.41
2019-04-30T21:30:01.141Z,10.44
2019-04-30T21:32:50.258Z,10.52
2019-04-30T21:35:43.122Z,10.59
2019-04-30T21:38:14.674Z,10.66
2019-04-30T21:40:46.131Z,10.53
2019-04-30T21:43:17.725Z,10.54
2019-04-30T21:45:49.431Z,10.60
2019-04-30T21:48:21.160Z,10.68
2019-04-30T21:50:52.435Z,10.74
2019-04-30T21:53:23.733Z,10.72
2019-04-30T21:55:55.457Z,10.69
2019-04-30T21:58:29.059Z,10.72
2019-04-30T22:01:23.743Z,10.71
2019-04-30T22:03:55.743Z,10.77
2019-04-30T22:06:29.606Z,10.85
2019-04-30T22:09:01.264Z,10.93
2019-04-30T22:11:34.144Z,10.90
2019-04-30T22:14:05.895Z,10.99
2019-04-30T22:16:39.800Z,10.84
2019-04-30T22:19:11.592Z,10.93
2019-04-30T22:21:43.127Z,10.89
2019-04-30T22:24:14.848Z,10.84
2019-04-30T22:26:46.429Z,10.96
2019-04-30T22:29:19.156Z,10.94
2019-04-30T22:31:50.814Z,10.92
2019-04-30T22:34:22.535Z,10.74
2019-04-30T22:36:53.960Z,10.72
2019-04-30T22:39:56.344Z,10.57
2019-04-30T22:42:32.773Z,10.40
2019-04-30T22:45:06.897Z,10.37
2019-04-30T22:47:38.373Z,10.17
2019-04-30T22:50:10.572Z,10.18
2019-04-30T22:52:41.975Z,10.14
2019-04-30T22:55:13.624Z,9.97
2019-04-30T22:57:45.027Z,9.66
2019-04-30T23:00:24.943Z,9.45
2019-04-30T23:03:02.480Z,9.46
2019-04-30T23:05:34.290Z,9.44
2019-04-30T23:08:05.798Z,9.41
2019-04-30T23:10:37.414Z,9.41
2019-04-30T23:13:09.156Z,9.48
2019-04-30T23:15:41.096Z,9.57
2019-04-30T23:18:12.523Z,9.57
2019-04-30T23:20:44.114Z,9.70
2019-04-30T23:23:15.518Z,9.88
2019-04-30T23:25:47.444Z,10.00
2019-04-30T23:28:18.785Z,10.11
2019-04-30T23:30:50.124Z,10.24
2019-04-30T23:33:21.683Z,10.32
2019-04-30T23:35:53.544Z,10.46
2019-04-30T23:38:25.119Z,10.54
2019-04-30T23:40:56.542Z,10.48
2019-04-30T23:43:27.877Z,10.43
2019-04-30T23:45:59.146Z,10.45
2019-04-30T23:48:30.390Z,10.37
2019-04-30T23:51:01.713Z,10.27
2019-04-30T23:53:32.957Z,10.31
2019-04-30T23:56:04.331Z,10.32
2019-04-30T23:58:35.933Z,10.32
